createdAt,value
2018-09-26T00:00:17.051Z,8.73
2018-09-26T00:02:49.603Z,8.70
2018-09-26T00:05:20.239Z,8.65
2018-09-26T00:07:50.519Z,8.64
2018-09-26T00:10:20.859Z,8.65
2018-09-26T00:12:51.115Z,8.62
2018-09-26T00:15:22.194Z,8.66
2018-09-26T00:17:52.298Z,8.59
2018-09-26T00:20:23.543Z,8.54
2018-09-26T00:22:54.507Z,8.49
2018-09-26T00:25:24.397Z,8.50
2018-09-26T00:27:54.819Z,8.45
2018-09-26T00:30:25.808Z,8.32
2018-09-26T00:32:55.914Z,8.32
2018-09-26T00:35:26.068Z,8.26
2018-09-26T00:37:56.301Z,8.29
2018-09-26T00:40:26.249Z,8.17
2018-09-26T00:42:56.978Z,8.20
2018-09-26T00:45:27.872Z,8.20
2018-09-26T00:47:58.187Z,8.17
2018-09-26T00:50:28.076Z,8.22
2018-09-26T00:52:58.497Z,8.21
2018-09-26T00:55:28.716Z,8.13
2018-09-26T00:57:59.509Z,8.21
2018-09-26T01:00:29.568Z,8.15
2018-09-26T01:03:00.376Z,8.07
2018-09-26T01:05:30.632Z,8.11
2018-09-26T01:08:00.987Z,8.00
2018-09-26T01:10:30.983Z,8.08
2018-09-26T01:13:01.115Z,7.99
2018-09-26T01:15:31.416Z,8.01
2018-09-26T01:18:01.725Z,7.97
2018-09-26T01:20:31.851Z,8.02
2018-09-26T01:23:02.328Z,7.95
2018-09-26T01:25:32.376Z,7.97
2018-09-26T01:28:04.271Z,8.04
2018-09-26T01:30:34.392Z,8.08
2018-09-26T01:33:04.871Z,8.05
2018-09-26T01:35:35.070Z,7.97
2018-09-26T01:38:05.355Z,8.03
2018-09-26T01:40:35.779Z,7.99
2018-09-26T01:43:06.296Z,8.02
2018-09-26T01:45:36.123Z,8.08
2018-09-26T01:48:06.379Z,8.04
2018-09-26T01:50:36.686Z,8.09
2018-09-26T01:53:06.607Z,8.13
2018-09-26T01:55:36.833Z,8.13
2018-09-26T01:58:07.159Z,8.10
2018-09-26T02:00:36.983Z,7.99
2018-09-26T02:03:07.491Z,8.08
2018-09-26T02:05:38.114Z,8.12
2018-09-26T02:08:08.413Z,8.08
2018-09-26T02:10:38.479Z,8.07
2018-09-26T02:13:08.658Z,8.04
2018-09-26T02:15:39.104Z,8.04
2018-09-26T02:18:09.289Z,8.06
2018-09-26T02:20:39.399Z,8.08
2018-09-26T02:23:09.680Z,8.14
2018-09-26T02:25:39.917Z,8.13
2018-09-26T02:28:10.023Z,8.15
2018-09-26T02:30:40.145Z,8.21
2018-09-26T02:33:10.503Z,8.28
2018-09-26T02:35:40.630Z,8.22
2018-09-26T02:38:10.703Z,8.28
2018-09-26T02:40:40.663Z,8.29
2018-09-26T02:43:10.796Z,8.28
2018-09-26T02:45:42.020Z,8.31
2018-09-26T02:48:17.198Z,8.30
2018-09-26T02:50:47.181Z,8.29
2018-09-26T02:53:17.158Z,8.23
2018-09-26T02:55:47.425Z,8.24
2018-09-26T02:58:17.614Z,8.29
2018-09-26T03:00:47.632Z,8.28
2018-09-26T03:03:17.980Z,8.16
2018-09-26T03:05:48.037Z,8.16
2018-09-26T03:08:18.325Z,8.13
2018-09-26T03:10:48.604Z,8.15
2018-09-26T03:13:18.631Z,8.11
2018-09-26T03:15:50.008Z,8.07
2018-09-26T03:18:20.836Z,8.08
2018-09-26T03:20:50.976Z,8.05
2018-09-26T03:23:22.827Z,8.01
2018-09-26T03:25:53.037Z,8.02
2018-09-26T03:28:23.078Z,8.04
2018-09-26T03:30:53.095Z,8.00
2018-09-26T03:33:24.268Z,8.01
2018-09-26T03:35:54.528Z,8.04
2018-09-26T03:38:24.689Z,8.05
2018-09-26T03:40:54.773Z,8.00
2018-09-26T03:43:25.869Z,7.97
2018-09-26T03:45:56.352Z,7.95
2018-09-26T03:48:27.565Z,7.91
2018-09-26T03:50:57.847Z,7.93
2018-09-26T03:53:27.937Z,7.96
2018-09-26T03:55:57.976Z,7.96
2018-09-26T03:58:28.865Z,7.98
2018-09-26T04:00:59.091Z,8.01
2018-09-26T04:03:29.371Z,7.97
2018-09-26T04:06:00.217Z,7.96
2018-09-26T04:08:30.252Z,8.03
2018-09-26T04:11:00.569Z,7.99
2018-09-26T04:13:30.687Z,8.01
2018-09-26T04:16:00.917Z,8.04
2018-09-26T04:18:31.204Z,8.10
2018-09-26T04:21:01.190Z,8.05
2018-09-26T04:23:32.150Z,8.16
2018-09-26T04:26:06.369Z,8.11
2018-09-26T04:28:36.700Z,8.11
2018-09-26T04:31:06.527Z,8.19
2018-09-26T04:33:36.910Z,8.23
2018-09-26T04:36:07.495Z,8.28
2018-09-26T04:38:37.887Z,8.27
2018-09-26T04:41:08.229Z,8.33
2018-09-26T04:43:38.607Z,8.38
2018-09-26T04:46:09.777Z,8.43
2018-09-26T04:48:40.347Z,8.50
2018-09-26T04:51:11.653Z,8.56
2018-09-26T04:53:45.192Z,8.73
2018-09-26T04:56:16.178Z,8.80
2018-09-26T04:58:47.383Z,9.03
2018-09-26T05:01:17.979Z,9.50
2018-09-26T05:03:48.272Z,9.92
2018-09-26T05:06:18.419Z,10.76
2018-09-26T05:08:50.670Z,10.55
2018-09-26T05:11:21.003Z,10.05
2018-09-26T05:13:51.074Z,10.16
2018-09-26T05:16:21.335Z,10.18
2018-09-26T05:18:52.279Z,10.42
2018-09-26T05:21:23.232Z,10.66
2018-09-26T05:23:53.684Z,10.31
2018-09-26T05:26:25.028Z,10.04
2018-09-26T05:28:56.300Z,10.39
2018-09-26T05:31:26.739Z,10.71
2018-09-26T05:33:56.827Z,11.00
2018-09-26T05:36:29.070Z,11.11
2018-09-26T05:38:59.607Z,11.67
2018-09-26T05:41:29.716Z,11.87
2018-09-26T05:43:59.959Z,12.18
2018-09-26T05:46:31.021Z,12.64
2018-09-26T05:49:01.023Z,12.87
2018-09-26T05:51:31.797Z,12.79
2018-09-26T05:54:03.004Z,13.13
2018-09-26T05:56:33.138Z,13.85
2018-09-26T05:59:03.177Z,14.15
2018-09-26T06:01:33.514Z,14.21
2018-09-26T06:04:03.698Z,14.35
2018-09-26T06:06:34.018Z,14.05
2018-09-26T06:09:05.642Z,14.56
2018-09-26T06:11:35.517Z,14.98
2018-09-26T06:14:05.982Z,14.82
2018-09-26T06:16:36.191Z,14.69
2018-09-26T06:19:08.102Z,14.90
2018-09-26T06:21:38.574Z,14.61
2018-09-26T06:24:10.030Z,14.63
2018-09-26T06:26:40.243Z,14.65
2018-09-26T06:29:10.530Z,14.72
2018-09-26T06:31:40.691Z,14.63
2018-09-26T06:34:10.790Z,14.24
2018-09-26T06:36:40.950Z,13.71
2018-09-26T06:39:12.696Z,13.43
2018-09-26T06:41:42.980Z,12.88
2018-09-26T06:44:13.653Z,12.38
2018-09-26T06:46:44.720Z,12.11
2018-09-26T06:49:14.944Z,11.96
2018-09-26T06:51:45.403Z,11.72
2018-09-26T06:54:17.121Z,11.38
2018-09-26T06:56:47.180Z,11.47
2018-09-26T06:59:17.746Z,11.56
2018-09-26T07:01:48.088Z,11.53
2018-09-26T07:04:18.110Z,11.68
2018-09-26T07:06:49.093Z,11.67
2018-09-26T07:09:19.566Z,11.72
2018-09-26T07:11:51.365Z,11.61
2018-09-26T07:14:21.529Z,11.68
2018-09-26T07:16:51.676Z,11.71
2018-09-26T07:19:22.044Z,11.80
2018-09-26T07:21:52.727Z,11.78
2018-09-26T07:24:24.164Z,11.81
2018-09-26T07:26:54.360Z,11.90
2018-09-26T07:29:25.505Z,12.18
2018-09-26T07:31:55.882Z,12.16
2018-09-26T07:34:31.198Z,12.19
2018-09-26T07:37:01.870Z,12.23
2018-09-26T07:39:32.393Z,12.26
2018-09-26T07:42:03.451Z,12.28
2018-09-26T07:44:33.906Z,12.38
2018-09-26T07:47:04.412Z,12.40
2018-09-26T07:49:34.741Z,12.46
2018-09-26T07:52:04.930Z,12.51
2018-09-26T07:54:37.483Z,12.65
2018-09-26T07:57:08.567Z,12.65
2018-09-26T07:59:39.898Z,12.78
2018-09-26T08:02:10.123Z,12.79
2018-09-26T08:04:40.765Z,12.78
2018-09-26T08:07:11.183Z,12.94
2018-09-26T08:09:41.623Z,12.92
2018-09-26T08:12:11.732Z,13.04
2018-09-26T08:14:41.868Z,12.99
2018-09-26T08:17:12.105Z,13.07
2018-09-26T08:19:42.339Z,13.11
2018-09-26T08:22:12.786Z,13.15
2018-09-26T08:24:44.066Z,13.34
2018-09-26T08:27:14.520Z,13.45
2018-09-26T08:29:44.763Z,13.39
2018-09-26T08:32:14.979Z,13.39
2018-09-26T08:34:45.339Z,13.52
2018-09-26T08:37:15.417Z,13.57
2018-09-26T08:39:45.570Z,13.78
2018-09-26T08:42:16.289Z,13.78
2018-09-26T08:44:46.621Z,13.82
2018-09-26T08:47:16.974Z,13.71
2018-09-26T08:49:47.344Z,13.61
2018-09-26T08:52:18.065Z,13.80
2018-09-26T08:54:48.088Z,14.04
2018-09-26T08:57:18.415Z,13.90
2018-09-26T08:59:48.668Z,13.70
2018-09-26T09:02:18.986Z,13.79
2018-09-26T09:04:49.697Z,14.15
2018-09-26T09:07:20.558Z,14.20
2018-09-26T09:09:50.940Z,14.13
2018-09-26T09:12:21.102Z,14.30
2018-09-26T09:14:51.408Z,14.13
2018-09-26T09:17:21.688Z,14.25
2018-09-26T09:19:51.772Z,14.14
2018-09-26T09:22:22.197Z,14.23
2018-09-26T09:24:53.120Z,14.39
2018-09-26T09:27:23.571Z,14.62
2018-09-26T09:29:53.585Z,14.41
2018-09-26T09:32:24.541Z,14.38
2018-09-26T09:34:54.862Z,14.30
2018-09-26T09:37:25.254Z,14.41
2018-09-26T09:39:55.838Z,14.45
2018-09-26T09:42:26.499Z,14.55
2018-09-26T09:44:56.630Z,14.82
2018-09-26T09:47:26.746Z,14.65
2018-09-26T09:49:57.177Z,14.52
2018-09-26T09:52:27.735Z,14.48
2018-09-26T09:54:57.852Z,14.73
2018-09-26T09:57:28.761Z,14.66
2018-09-26T09:59:59.082Z,14.83
2018-09-26T10:02:29.630Z,14.84
2018-09-26T10:05:01.280Z,15.10
2018-09-26T10:07:31.473Z,14.86
2018-09-26T10:10:01.747Z,14.69
2018-09-26T10:12:31.933Z,15.00
2018-09-26T10:15:02.018Z,14.70
2018-09-26T10:17:32.548Z,14.58
2018-09-26T10:20:02.749Z,14.76
2018-09-26T10:22:35.109Z,15.08
2018-09-26T10:25:07.248Z,14.99
2018-09-26T10:27:38.833Z,14.75
2018-09-26T10:30:09.688Z,14.58
2018-09-26T10:32:39.752Z,14.79
2018-09-26T10:35:10.092Z,15.02
2018-09-26T10:37:40.497Z,15.10
2018-09-26T10:40:10.726Z,14.96
2018-09-26T10:42:41.088Z,14.77
2018-09-26T10:45:11.818Z,14.56
2018-09-26T10:47:43.006Z,14.56
2018-09-26T10:50:13.068Z,14.75
2018-09-26T10:52:43.642Z,14.69
2018-09-26T10:55:14.017Z,14.87
2018-09-26T10:57:44.203Z,14.94
2018-09-26T11:00:15.877Z,15.01
2018-09-26T11:02:46.597Z,15.31
2018-09-26T11:05:16.828Z,15.72
2018-09-26T11:07:47.054Z,15.45
2018-09-26T11:10:17.191Z,15.49
2018-09-26T11:12:47.298Z,15.25
2018-09-26T11:15:17.559Z,15.12
2018-09-26T11:17:47.805Z,15.19
2018-09-26T11:20:18.016Z,15.41
2018-09-26T11:22:48.161Z,15.47
2018-09-26T11:25:19.902Z,15.65
2018-09-26T11:27:50.444Z,15.69
2018-09-26T11:30:21.898Z,15.72
2018-09-26T11:32:52.042Z,15.77
2018-09-26T11:35:22.510Z,15.55
2018-09-26T11:37:52.940Z,15.16
2018-09-26T11:40:23.546Z,15.15
2018-09-26T11:42:53.525Z,15.04
2018-09-26T11:45:23.593Z,15.35
2018-09-26T11:47:53.753Z,15.44
2018-09-26T11:50:23.953Z,15.63
2018-09-26T11:52:53.937Z,15.72
2018-09-26T11:55:24.063Z,15.71
2018-09-26T11:57:54.646Z,15.31
2018-09-26T12:00:24.981Z,15.13
2018-09-26T12:02:55.070Z,15.26
2018-09-26T12:05:26.078Z,14.91
2018-09-26T12:07:56.174Z,14.89
2018-09-26T12:10:27.179Z,14.82
2018-09-26T12:12:57.179Z,15.10
2018-09-26T12:15:27.349Z,15.36
2018-09-26T12:17:58.768Z,15.43
2018-09-26T12:20:29.962Z,15.47
2018-09-26T12:23:00.030Z,15.67
2018-09-26T12:25:31.863Z,15.65
2018-09-26T12:28:03.018Z,15.85
2018-09-26T12:30:33.522Z,15.53
2018-09-26T12:33:05.225Z,15.21
2018-09-26T12:35:35.351Z,15.05
2018-09-26T12:38:10.861Z,15.04
2018-09-26T12:40:41.148Z,14.83
2018-09-26T12:43:11.219Z,14.63
2018-09-26T12:45:42.353Z,14.69
2018-09-26T12:48:12.831Z,14.90
2018-09-26T12:50:42.816Z,15.31
2018-09-26T12:53:13.944Z,15.52
2018-09-26T12:55:46.300Z,15.60
2018-09-26T12:58:16.390Z,15.51
2018-09-26T13:00:46.677Z,14.98
2018-09-26T13:03:17.003Z,14.78
2018-09-26T13:05:47.052Z,14.73
2018-09-26T13:08:17.756Z,14.72
2018-09-26T13:10:48.298Z,14.77
2018-09-26T13:13:18.479Z,14.73
2018-09-26T13:15:48.702Z,14.66
2018-09-26T13:18:18.869Z,14.47
2018-09-26T13:20:50.759Z,14.60
2018-09-26T13:23:20.764Z,14.78
2018-09-26T13:25:50.911Z,14.94
2018-09-26T13:28:23.390Z,15.13
2018-09-26T13:30:53.653Z,15.15
2018-09-26T13:33:23.881Z,15.04
2018-09-26T13:35:54.226Z,14.74
2018-09-26T13:38:24.400Z,14.63
2018-09-26T13:40:55.030Z,14.50
2018-09-26T13:43:25.138Z,14.38
2018-09-26T13:45:55.546Z,14.33
2018-09-26T13:48:25.675Z,14.52
2018-09-26T13:50:57.390Z,14.64
2018-09-26T13:53:27.384Z,15.01
2018-09-26T13:55:57.634Z,15.25
2018-09-26T13:58:27.747Z,15.05
2018-09-26T14:00:58.085Z,14.72
2018-09-26T14:03:29.672Z,14.54
2018-09-26T14:05:59.886Z,14.46
2018-09-26T14:08:30.211Z,14.23
2018-09-26T14:11:00.169Z,14.11
2018-09-26T14:13:30.643Z,14.08
2018-09-26T14:16:00.814Z,14.04
2018-09-26T14:18:31.053Z,13.90
2018-09-26T14:21:01.440Z,13.90
2018-09-26T14:23:31.828Z,13.90
2018-09-26T14:26:04.389Z,13.81
2018-09-26T14:28:34.720Z,13.82
2018-09-26T14:31:07.558Z,13.98
2018-09-26T14:33:39.280Z,14.12
2018-09-26T14:36:10.354Z,14.29
2018-09-26T14:38:40.501Z,14.48
2018-09-26T14:41:11.049Z,14.60
2018-09-26T14:43:41.535Z,14.59
2018-09-26T14:46:11.952Z,14.61
2018-09-26T14:48:46.796Z,14.45
2018-09-26T14:51:18.368Z,14.47
2018-09-26T14:53:48.988Z,14.31
2018-09-26T14:56:19.649Z,14.24
2018-09-26T14:58:49.980Z,14.20
2018-09-26T15:01:20.715Z,14.08
2018-09-26T15:03:51.756Z,13.94
2018-09-26T15:06:23.061Z,13.79
2018-09-26T15:08:55.519Z,13.74
2018-09-26T15:11:25.851Z,13.68
2018-09-26T15:13:56.156Z,13.74
2018-09-26T15:16:26.485Z,13.73
2018-09-26T15:18:56.926Z,13.59
2018-09-26T15:21:28.883Z,13.52
2018-09-26T15:23:59.854Z,13.51
2018-09-26T15:26:30.746Z,13.35
2018-09-26T15:29:01.062Z,13.33
2018-09-26T15:31:32.094Z,13.39
2018-09-26T15:34:03.329Z,13.43
2018-09-26T15:36:34.490Z,13.38
2018-09-26T15:39:05.644Z,13.29
2018-09-26T15:41:35.854Z,13.33
2018-09-26T15:44:05.607Z,13.36
2018-09-26T15:46:35.442Z,13.36
2018-09-26T15:49:05.084Z,13.38
2018-09-26T15:51:36.357Z,13.26
2018-09-26T15:54:06.849Z,13.29
2018-09-26T15:56:40.157Z,13.30
2018-09-26T15:59:10.633Z,13.30
2018-09-26T16:01:42.752Z,13.25
2018-09-26T16:04:13.109Z,13.26
2018-09-26T16:06:43.777Z,13.19
2018-09-26T16:09:14.958Z,13.08
2018-09-26T16:11:45.427Z,13.09
2018-09-26T16:14:15.736Z,13.01
2018-09-26T16:16:46.087Z,12.97
2018-09-26T16:19:16.255Z,12.93
2018-09-26T16:21:47.234Z,12.84
2018-09-26T16:24:17.601Z,12.90
2018-09-26T16:26:49.888Z,12.86
2018-09-26T16:29:20.325Z,12.80
2018-09-26T16:31:50.615Z,12.79
2018-09-26T16:34:20.631Z,12.75
2018-09-26T16:36:51.088Z,12.72
2018-09-26T16:39:21.531Z,12.74
2018-09-26T16:41:52.512Z,12.69
2018-09-26T16:44:23.579Z,12.61
2018-09-26T16:46:53.799Z,12.56
2018-09-26T16:49:24.307Z,12.54
2018-09-26T16:51:55.014Z,12.43
2018-09-26T16:54:25.317Z,12.44
2018-09-26T16:56:55.366Z,12.52
2018-09-26T16:59:25.914Z,12.44
2018-09-26T17:01:56.110Z,12.40
2018-09-26T17:04:27.094Z,12.36
2018-09-26T17:06:57.687Z,12.34
2018-09-26T17:09:28.400Z,12.17
2018-09-26T17:11:58.248Z,12.12
2018-09-26T17:14:28.117Z,12.08
2018-09-26T17:16:58.081Z,11.95
2018-09-26T17:19:27.847Z,11.94
2018-09-26T17:21:58.310Z,11.83
2018-09-26T17:24:29.370Z,11.75
2018-09-26T17:27:03.759Z,11.61
2018-09-26T17:29:34.132Z,11.59
2018-09-26T17:32:04.376Z,11.58
2018-09-26T17:34:35.182Z,11.59
2018-09-26T17:37:05.664Z,11.49
2018-09-26T17:39:36.821Z,11.44
2018-09-26T17:42:06.969Z,11.37
2018-09-26T17:44:37.920Z,11.23
2018-09-26T17:47:08.729Z,11.30
2018-09-26T17:49:39.350Z,11.27
2018-09-26T17:52:13.200Z,11.19
2018-09-26T17:54:44.025Z,11.15
2018-09-26T17:57:15.509Z,11.12
2018-09-26T17:59:45.963Z,11.16
2018-09-26T18:02:16.472Z,11.17
2018-09-26T18:04:46.751Z,11.11
2018-09-26T18:07:18.161Z,11.16
2018-09-26T18:09:48.257Z,11.14
2018-09-26T18:12:18.598Z,11.23
2018-09-26T18:14:48.643Z,11.17
2018-09-26T18:17:19.391Z,11.18
2018-09-26T18:19:49.750Z,11.22
2018-09-26T18:22:20.018Z,11.18
2018-09-26T18:24:50.167Z,11.11
2018-09-26T18:27:22.445Z,11.00
2018-09-26T18:29:53.488Z,11.06
2018-09-26T18:32:24.851Z,10.98
2018-09-26T18:34:55.437Z,11.00
2018-09-26T18:37:27.403Z,10.87
2018-09-26T18:40:00.178Z,10.91
2018-09-26T18:42:30.205Z,10.82
2018-09-26T18:45:00.544Z,10.76
2018-09-26T18:47:30.858Z,10.71
2018-09-26T18:50:02.075Z,10.61
2018-09-26T18:52:33.315Z,10.64
2018-09-26T18:55:03.733Z,10.61
2018-09-26T18:57:35.080Z,10.55
2018-09-26T19:00:07.328Z,10.48
2018-09-26T19:02:37.614Z,10.45
2018-09-26T19:05:08.122Z,10.41
2018-09-26T19:07:38.704Z,10.47
2018-09-26T19:10:08.918Z,10.49
2018-09-26T19:12:40.294Z,10.44
2018-09-26T19:15:10.721Z,10.42
2018-09-26T19:17:40.927Z,10.41
2018-09-26T19:20:11.038Z,10.40
2018-09-26T19:22:41.956Z,10.40
2018-09-26T19:25:18.174Z,10.31
2018-09-26T19:27:48.629Z,10.27
2018-09-26T19:30:20.190Z,10.25
2018-09-26T19:32:50.333Z,10.26
2018-09-26T19:35:20.997Z,10.31
2018-09-26T19:37:51.969Z,10.38
2018-09-26T19:40:22.626Z,10.41
2018-09-26T19:42:52.898Z,10.36
2018-09-26T19:45:23.364Z,10.33
2018-09-26T19:47:54.097Z,10.26
2018-09-26T19:50:26.275Z,10.24
2018-09-26T19:52:56.630Z,10.25
2018-09-26T19:55:28.460Z,10.39
2018-09-26T19:57:58.985Z,10.43
2018-09-26T20:00:30.257Z,10.45
2018-09-26T20:03:01.187Z,10.40
2018-09-26T20:05:32.596Z,10.46
2018-09-26T20:08:03.020Z,10.45
2018-09-26T20:10:33.871Z,10.42
2018-09-26T20:13:06.298Z,10.33
2018-09-26T20:15:36.787Z,10.34
2018-09-26T20:18:07.492Z,10.30
2018-09-26T20:20:38.101Z,10.30
2018-09-26T20:23:08.205Z,10.26
2018-09-26T20:25:39.022Z,10.24
2018-09-26T20:28:09.563Z,10.26
2018-09-26T20:30:40.351Z,10.27
2018-09-26T20:33:11.510Z,10.22
2018-09-26T20:35:41.968Z,10.18
2018-09-26T20:38:12.394Z,10.25
2018-09-26T20:40:43.818Z,10.24
2018-09-26T20:43:15.571Z,10.19
2018-09-26T20:45:45.723Z,10.17
2018-09-26T20:48:16.164Z,10.25
2018-09-26T20:50:47.322Z,10.20
2018-09-26T20:53:17.560Z,10.21
2018-09-26T20:55:47.758Z,10.22
2018-09-26T20:58:18.993Z,10.26
2018-09-26T21:00:50.666Z,10.19
2018-09-26T21:03:21.133Z,10.24
2018-09-26T21:05:52.205Z,10.22
2018-09-26T21:08:22.174Z,10.25
2018-09-26T21:10:52.308Z,10.24
2018-09-26T21:13:22.361Z,10.34
2018-09-26T21:15:52.404Z,10.31
2018-09-26T21:18:22.680Z,10.31
2018-09-26T21:20:53.023Z,10.36
2018-09-26T21:23:23.864Z,10.34
2018-09-26T21:25:54.450Z,10.30
2018-09-26T21:28:25.562Z,10.25
2018-09-26T21:30:57.111Z,10.24
2018-09-26T21:33:27.455Z,10.22
2018-09-26T21:35:57.773Z,10.24
2018-09-26T21:38:27.861Z,10.25
2018-09-26T21:40:57.973Z,10.23
2018-09-26T21:43:28.206Z,10.24
2018-09-26T21:45:58.394Z,10.33
2018-09-26T21:48:28.560Z,10.33
2018-09-26T21:50:58.448Z,10.41
2018-09-26T21:53:28.828Z,10.31
2018-09-26T21:55:59.134Z,10.29
2018-09-26T21:58:29.965Z,10.34
2018-09-26T22:01:05.076Z,10.29
2018-09-26T22:03:35.608Z,10.21
2018-09-26T22:06:05.786Z,10.25
2018-09-26T22:08:39.541Z,10.18
2018-09-26T22:11:09.872Z,10.13
2018-09-26T22:13:40.792Z,10.14
2018-09-26T22:16:10.934Z,10.10
2018-09-26T22:18:42.128Z,10.06
2018-09-26T22:21:12.470Z,9.95
2018-09-26T22:23:42.782Z,9.96
2018-09-26T22:26:13.107Z,9.97
2018-09-26T22:28:43.229Z,9.88
2018-09-26T22:31:15.149Z,9.84
2018-09-26T22:33:45.956Z,9.86
2018-09-26T22:36:16.141Z,9.89
2018-09-26T22:38:46.087Z,9.85
2018-09-26T22:41:16.378Z,9.65
2018-09-26T22:43:46.685Z,9.75
2018-09-26T22:46:17.032Z,9.77
2018-09-26T22:48:47.206Z,9.77
2018-09-26T22:51:17.454Z,9.74
2018-09-26T22:53:47.901Z,9.66
2018-09-26T22:56:20.643Z,9.69
2018-09-26T22:58:51.713Z,9.66
2018-09-26T23:01:22.872Z,9.58
2018-09-26T23:03:52.996Z,9.57
2018-09-26T23:06:23.127Z,9.61
2018-09-26T23:08:53.182Z,9.58
2018-09-26T23:11:23.386Z,9.50
2018-09-26T23:16:36.813Z,9.36
2018-09-26T23:19:07.242Z,9.30
2018-09-26T23:21:38.920Z,9.33
2018-09-26T23:24:09.245Z,9.38
2018-09-26T23:26:40.185Z,9.30
2018-09-26T23:29:10.252Z,9.34
2018-09-26T23:31:40.468Z,9.37
2018-09-26T23:34:10.769Z,9.36
2018-09-26T23:36:41.292Z,9.38
2018-09-26T23:39:12.205Z,9.40
2018-09-26T23:41:43.495Z,9.42
2018-09-26T23:44:13.414Z,9.45
2018-09-26T23:46:43.668Z,9.39
2018-09-26T23:49:13.909Z,9.37
2018-09-26T23:51:44.249Z,9.38
2018-09-26T23:54:14.937Z,9.32
2018-09-26T23:56:45.894Z,9.36
2018-09-26T23:59:16.110Z,9.36
